createdAt,value
2022-08-03T00:00:24.100Z,101543.63
2022-08-03T00:01:16.255Z,101547.16
2022-08-03T00:01:47.583Z,101549.94
2022-08-03T00:02:19.083Z,101545.59
2022-08-03T00:02:50.485Z,101551.16
2022-08-03T00:03:22.394Z,101551.16
2022-08-03T00:03:53.773Z,101552.72
2022-08-03T00:04:34.338Z,101541.28
2022-08-03T00:05:08.346Z,101545.25
2022-08-03T00:05:40.088Z,101545.25
2022-08-03T00:06:36.487Z,101550.00
2022-08-03T00:07:08.535Z,101550.00
2022-08-03T00:07:41.068Z,101552.00
2022-08-03T00:08:12.563Z,101543.25
2022-08-03T00:08:43.934Z,101544.03
2022-08-03T00:09:15.269Z,101550.78
2022-08-03T00:09:46.640Z,101554.34
2022-08-03T00:10:17.964Z,101552.78
2022-08-03T00:10:49.631Z,101548.44
2022-08-03T00:11:40.859Z,101540.13
2022-08-03T00:12:12.308Z,101548.88
2022-08-03T00:12:43.793Z,101546.88
2022-08-03T00:13:15.304Z,101540.56
2022-08-03T00:13:46.938Z,101541.78
2022-08-03T00:14:18.329Z,101543.34
2022-08-03T00:14:49.656Z,101538.56
2022-08-03T00:15:20.995Z,101544.91
2022-08-03T00:17:00.612Z,101543.34
2022-08-03T00:17:53.232Z,101541.78
2022-08-03T00:18:23.257Z,101541.41
2022-08-03T00:18:54.646Z,101541.41
2022-08-03T00:19:26.108Z,101538.66
2022-08-03T00:19:57.428Z,101542.97
2022-08-03T00:20:28.763Z,101540.63
2022-08-03T00:21:00.100Z,101546.97
2022-08-03T00:21:31.680Z,101543.41
2022-08-03T00:22:21.419Z,101537.88
2022-08-03T00:22:55.450Z,101539.44
2022-08-03T00:23:29.407Z,101539.44
2022-08-03T00:24:18.187Z,101542.97
2022-08-03T00:24:49.552Z,101544.97
2022-08-03T00:25:20.991Z,101545.41
2022-08-03T00:25:52.442Z,101542.63
2022-08-03T00:26:23.849Z,101548.63
2022-08-03T00:26:55.227Z,101537.19
2022-08-03T00:27:26.603Z,101547.06
2022-08-03T00:27:58.198Z,101541.50
2022-08-03T00:28:29.638Z,101539.16
2022-08-03T00:29:01.023Z,101535.19
2022-08-03T00:30:40.399Z,101543.13
2022-08-03T00:31:13.693Z,101543.94
2022-08-03T00:31:52.115Z,101543.13
2022-08-03T00:32:24.830Z,101541.94
2022-08-03T00:32:56.698Z,101543.94
2022-08-03T00:33:28.103Z,101540.34
2022-08-03T00:34:29.816Z,101541.16
2022-08-03T00:35:11.334Z,101543.53
2022-08-03T00:35:51.023Z,101541.19
2022-08-03T00:36:22.637Z,101540.06
2022-08-03T00:36:54.011Z,101542.81
2022-08-03T00:37:41.473Z,101542.47
2022-08-03T00:38:13.364Z,101538.91
2022-08-03T00:38:44.755Z,101536.50
2022-08-03T00:39:16.135Z,101538.50
2022-08-03T00:39:48.089Z,101536.50
2022-08-03T00:40:20.744Z,101542.03
2022-08-03T00:40:52.079Z,101536.50
2022-08-03T00:41:23.428Z,101535.72
2022-08-03T00:41:54.765Z,101534.94
2022-08-03T00:42:27.392Z,101538.91
2022-08-03T00:43:02.759Z,101538.91
2022-08-03T00:43:34.244Z,101535.38
2022-08-03T00:44:05.671Z,101534.16
2022-08-03T00:44:41.952Z,101539.34
2022-08-03T00:45:13.388Z,101539.78
2022-08-03T00:45:44.769Z,101539.00
2022-08-03T00:46:20.990Z,101538.63
2022-08-03T00:46:53.193Z,101537.06
2022-08-03T00:47:43.067Z,101537.53
2022-08-03T00:48:29.422Z,101532.31
2022-08-03T00:49:04.467Z,101543.06
2022-08-03T00:49:37.311Z,101535.53
2022-08-03T00:50:09.029Z,101531.97
2022-08-03T00:52:10.991Z,101536.81
2022-08-03T00:52:42.622Z,101536.03
2022-08-03T00:53:14.720Z,101533.25
2022-08-03T00:54:04.811Z,101538.00
2022-08-03T00:54:37.792Z,101521.81
2022-08-03T00:55:10.445Z,101533.69
2022-08-03T00:55:42.176Z,101537.66
2022-08-03T00:56:17.485Z,101531.34
2022-08-03T00:56:59.618Z,101526.56
2022-08-03T00:57:33.247Z,101534.88
2022-08-03T00:58:06.603Z,101523.03
2022-08-03T00:58:37.979Z,101532.13
2022-08-03T00:59:10.475Z,101531.34
2022-08-03T00:59:41.879Z,101527.78
2022-08-03T01:00:16.312Z,101527.00
2022-08-03T01:00:47.785Z,101528.56
2022-08-03T01:01:19.279Z,101525.78
2022-08-03T01:01:50.820Z,101523.03
2022-08-03T01:02:22.334Z,101530.91
2022-08-03T01:02:54.324Z,101531.69
2022-08-03T01:03:25.700Z,101529.34
2022-08-03T01:03:57.056Z,101534.53
2022-08-03T01:04:46.964Z,101530.19
2022-08-03T01:05:19.535Z,101525.84
2022-08-03T01:06:27.167Z,101520.31
2022-08-03T01:07:20.969Z,101522.72
2022-08-03T01:08:29.406Z,101526.28
2022-08-03T01:09:11.877Z,101521.16
2022-08-03T01:10:01.738Z,101520.38
2022-08-03T01:10:57.652Z,101515.28
2022-08-03T01:12:00.742Z,101520.03
2022-08-03T01:12:39.328Z,101519.69
2022-08-03T01:13:13.958Z,101527.22
2022-08-03T01:14:20.955Z,101522.88
2022-08-03T01:15:00.183Z,101518.91
2022-08-03T01:15:50.989Z,101517.34
2022-08-03T01:16:35.856Z,101523.31
2022-08-03T01:17:17.876Z,101521.75
2022-08-03T01:17:58.007Z,101528.06
2022-08-03T01:18:50.692Z,101525.31
2022-08-03T01:19:42.791Z,101520.97
2022-08-03T01:20:14.968Z,101524.16
2022-08-03T01:20:49.628Z,101520.59
2022-08-03T01:21:27.611Z,101521.03
2022-08-03T01:22:37.145Z,101521.44
2022-08-03T01:23:32.904Z,101522.28
2022-08-03T01:25:43.015Z,101532.59
2022-08-03T01:26:42.491Z,101516.41
2022-08-03T01:27:49.573Z,101524.34
2022-08-03T01:29:03.412Z,101522.78
2022-08-03T01:29:49.089Z,101522.44
2022-08-03T01:30:21.474Z,101515.78
2022-08-03T01:31:13.169Z,101520.16
2022-08-03T01:32:58.802Z,101521.38
2022-08-03T01:33:22.030Z,101515.47
2022-08-03T01:34:00.094Z,101513.91
2022-08-03T01:34:36.511Z,101520.66
2022-08-03T01:35:26.099Z,101521.84
2022-08-03T01:36:01.942Z,101515.53
2022-08-03T01:36:37.978Z,101519.09
2022-08-03T01:37:12.175Z,101520.66
2022-08-03T01:37:57.876Z,101519.44
2022-08-03T01:38:35.719Z,101510.38
2022-08-03T01:39:11.458Z,101516.69
2022-08-03T01:39:44.255Z,101517.09
2022-08-03T01:40:17.387Z,101514.75
2022-08-03T01:40:53.857Z,101518.31
2022-08-03T01:41:31.028Z,101519.09
2022-08-03T01:42:06.208Z,101516.31
2022-08-03T01:42:39.848Z,101517.53
2022-08-03T01:44:26.193Z,101515.53
2022-08-03T01:44:29.357Z,101521.84
2022-08-03T01:45:53.923Z,101512.41
2022-08-03T01:46:26.459Z,101511.25
2022-08-03T01:47:00.477Z,101516.44
2022-08-03T01:47:32.928Z,101518.44
2022-08-03T01:48:05.483Z,101510.56
2022-08-03T01:48:39.658Z,101513.34
2022-08-03T01:49:13.260Z,101513.34
2022-08-03T01:49:45.523Z,101515.31
2022-08-03T01:50:22.426Z,101510.56
2022-08-03T01:50:56.548Z,101512.91
2022-08-03T01:51:58.384Z,101511.34
2022-08-03T01:52:21.547Z,101510.91
2022-08-03T01:52:54.679Z,101512.91
2022-08-03T01:53:27.526Z,101507.38
2022-08-03T01:54:00.509Z,101505.38
2022-08-03T01:54:40.942Z,101502.59
2022-08-03T01:55:32.034Z,101508.13
2022-08-03T01:56:24.590Z,101505.38
2022-08-03T01:56:58.914Z,101507.81
2022-08-03T01:57:30.902Z,101506.25
2022-08-03T01:58:05.300Z,101501.91
2022-08-03T01:58:40.680Z,101511.00
2022-08-03T01:59:14.460Z,101504.69
2022-08-03T01:59:48.624Z,101499.56
2022-08-03T02:00:20.220Z,101492.84
2022-08-03T02:00:53.065Z,101503.13
2022-08-03T02:01:25.907Z,101497.16
2022-08-03T02:02:37.327Z,101498.72
2022-08-03T02:03:12.091Z,101497.94
2022-08-03T02:04:02.768Z,101500.72
2022-08-03T02:04:35.782Z,101508.22
2022-08-03T02:05:10.739Z,101505.47
2022-08-03T02:05:46.273Z,101499.94
2022-08-03T02:06:59.814Z,101503.47
2022-08-03T02:07:12.691Z,101502.69
2022-08-03T02:07:46.267Z,101506.25
2022-08-03T02:08:19.056Z,101504.69
2022-08-03T02:08:52.560Z,101510.22
2022-08-03T02:09:26.287Z,101504.69
2022-08-03T02:09:59.020Z,101502.69
2022-08-03T02:10:34.804Z,101504.69
2022-08-03T02:11:07.972Z,101505.88
2022-08-03T02:11:58.079Z,101498.38
2022-08-03T02:12:32.369Z,101503.91
2022-08-03T02:13:06.567Z,101503.91
2022-08-03T02:13:38.480Z,101503.91
2022-08-03T02:14:10.957Z,101509.84
2022-08-03T02:14:45.587Z,101506.31
2022-08-03T02:15:19.180Z,101512.25
2022-08-03T02:15:52.801Z,101505.94
2022-08-03T02:16:24.613Z,101506.72
2022-08-03T02:16:57.829Z,101503.59
2022-08-03T02:17:38.594Z,101504.78
2022-08-03T02:18:12.833Z,101501.66
2022-08-03T02:18:47.647Z,101504.44
2022-08-03T02:19:20.497Z,101504.81
2022-08-03T02:19:52.379Z,101502.84
2022-08-03T02:20:24.960Z,101505.59
2022-08-03T02:20:57.615Z,101502.06
2022-08-03T02:21:56.374Z,101504.03
2022-08-03T02:22:24.936Z,101514.38
2022-08-03T02:22:56.268Z,101507.31
2022-08-03T02:23:27.757Z,101507.31
2022-08-03T02:23:59.397Z,101511.28
2022-08-03T02:24:51.212Z,101511.28
2022-08-03T02:25:23.520Z,101517.22
2022-08-03T02:25:59.957Z,101516.88
2022-08-03T02:26:37.919Z,101516.09
2022-08-03T02:27:22.152Z,101514.09
2022-08-03T02:28:01.655Z,101516.09
2022-08-03T02:28:37.163Z,101507.38
2022-08-03T02:29:15.208Z,101508.94
2022-08-03T02:29:51.114Z,101507.72
2022-08-03T02:30:29.687Z,101504.97
2022-08-03T02:31:05.008Z,101504.19
2022-08-03T02:31:37.692Z,101506.59
2022-08-03T02:32:14.280Z,101503.03
2022-08-03T02:32:51.620Z,101502.63
2022-08-03T02:33:34.419Z,101497.50
2022-08-03T02:34:14.283Z,101501.47
2022-08-03T02:34:50.397Z,101497.94
2022-08-03T02:35:43.786Z,101505.44
2022-08-03T02:36:19.063Z,101497.97
2022-08-03T02:36:53.576Z,101495.63
2022-08-03T02:37:30.902Z,101492.88
2022-08-03T02:38:04.975Z,101488.91
2022-08-03T02:38:40.945Z,101490.09
2022-08-03T02:39:33.239Z,101492.09
2022-08-03T02:40:07.708Z,101492.09
2022-08-03T02:40:41.812Z,101490.09
2022-08-03T02:41:20.991Z,101490.88
2022-08-03T02:42:02.056Z,101490.09
2022-08-03T02:42:36.519Z,101494.44
2022-08-03T02:43:11.879Z,101496.41
2022-08-03T02:44:06.084Z,101494.84
2022-08-03T02:44:40.248Z,101486.19
2022-08-03T02:45:13.916Z,101494.13
2022-08-03T02:46:07.956Z,101486.63
2022-08-03T02:47:01.167Z,101489.00
2022-08-03T02:47:53.881Z,101490.56
2022-08-03T02:48:29.124Z,101485.47
2022-08-03T02:49:49.472Z,101484.25
2022-08-03T02:49:57.177Z,101485.47
2022-08-03T02:51:21.279Z,101485.47
2022-08-03T02:51:54.808Z,101479.16
2022-08-03T02:52:28.763Z,101479.94
2022-08-03T02:53:02.751Z,101482.28
2022-08-03T02:53:36.226Z,101475.97
2022-08-03T02:54:09.482Z,101480.72
2022-08-03T02:54:41.556Z,101480.72
2022-08-03T02:55:16.008Z,101477.16
2022-08-03T02:55:49.124Z,101475.19
2022-08-03T02:56:22.349Z,101485.47
2022-08-03T02:56:57.462Z,101480.72
2022-08-03T02:57:31.163Z,101475.19
2022-08-03T02:58:04.388Z,101481.50
2022-08-03T02:58:37.568Z,101478.72
2022-08-03T02:59:11.928Z,101477.16
2022-08-03T02:59:44.480Z,101480.72
2022-08-03T03:00:19.652Z,101479.53
2022-08-03T03:01:01.751Z,101470.44
2022-08-03T03:01:33.912Z,101470.44
2022-08-03T03:02:05.920Z,101479.53
2022-08-03T03:03:31.849Z,101474.00
2022-08-03T03:04:10.719Z,101476.38
2022-08-03T03:05:52.794Z,101479.94
2022-08-03T03:05:53.495Z,101480.72
2022-08-03T03:07:17.921Z,101482.38
2022-08-03T03:07:51.853Z,101482.38
2022-08-03T03:08:26.049Z,101475.28
2022-08-03T03:09:00.667Z,101482.78
2022-08-03T03:09:41.635Z,101479.25
2022-08-03T03:10:14.571Z,101479.66
2022-08-03T03:10:46.876Z,101472.97
2022-08-03T03:11:20.835Z,101476.53
2022-08-03T03:11:53.782Z,101475.75
2022-08-03T03:12:26.570Z,101482.06
2022-08-03T03:12:59.477Z,101484.81
2022-08-03T03:13:32.328Z,101479.28
2022-08-03T03:14:04.032Z,101476.53
2022-08-03T03:14:37.232Z,101478.50
2022-08-03T03:15:08.986Z,101478.50
2022-08-03T03:15:42.020Z,101477.31
2022-08-03T03:16:15.204Z,101476.13
2022-08-03T03:16:50.621Z,101477.69
2022-08-03T03:17:24.519Z,101476.91
2022-08-03T03:18:47.855Z,101480.84
2022-08-03T03:19:20.484Z,101479.28
2022-08-03T03:20:10.598Z,101476.94
2022-08-03T03:21:00.750Z,101476.94
2022-08-03T03:21:33.702Z,101476.16
2022-08-03T03:22:07.367Z,101477.38
2022-08-03T03:22:41.036Z,101479.34
2022-08-03T03:23:17.710Z,101478.56
2022-08-03T03:23:49.418Z,101478.56
2022-08-03T03:24:21.179Z,101473.09
2022-08-03T03:24:54.648Z,101473.88
2022-08-03T03:25:26.364Z,101474.28
2022-08-03T03:25:58.904Z,101472.31
2022-08-03T03:26:30.659Z,101471.09
2022-08-03T03:27:03.463Z,101470.31
2022-08-03T03:27:35.239Z,101464.00
2022-08-03T03:28:06.875Z,101476.28
2022-08-03T03:28:38.606Z,101470.75
2022-08-03T03:29:10.012Z,101474.72
2022-08-03T03:29:42.163Z,101478.66
2022-08-03T03:30:13.705Z,101474.34
2022-08-03T03:30:45.242Z,101466.06
2022-08-03T03:31:24.459Z,101474.34
2022-08-03T03:31:57.299Z,101470.81
2022-08-03T03:32:29.508Z,101476.34
2022-08-03T03:33:01.023Z,101469.59
2022-08-03T03:33:34.313Z,101476.34
2022-08-03T03:34:05.735Z,101472.38
2022-08-03T03:34:38.741Z,101470.38
2022-08-03T03:35:10.680Z,101473.16
2022-08-03T03:36:01.151Z,101474.72
2022-08-03T03:36:32.552Z,101475.13
2022-08-03T03:37:05.004Z,101470.03
2022-08-03T03:37:36.333Z,101474.00
2022-08-03T03:38:07.715Z,101474.78
2022-08-03T03:38:39.169Z,101476.78
2022-08-03T03:39:16.123Z,101472.44
2022-08-03T03:39:47.751Z,101477.97
2022-08-03T03:40:19.465Z,101474.00
2022-08-03T03:40:51.236Z,101479.53
2022-08-03T03:41:22.606Z,101475.22
2022-08-03T03:41:54.283Z,101474.44
2022-08-03T03:42:26.011Z,101474.44
2022-08-03T03:43:15.933Z,101481.94
2022-08-03T03:44:05.691Z,101477.59
2022-08-03T03:44:37.132Z,101474.84
2022-08-03T03:45:27.953Z,101478.03
2022-08-03T03:46:00.579Z,101485.94
2022-08-03T03:46:32.192Z,101486.72
2022-08-03T03:47:03.780Z,101480.06
2022-08-03T03:47:54.515Z,101478.84
2022-08-03T03:48:26.568Z,101478.84
2022-08-03T03:48:58.159Z,101478.06
2022-08-03T03:49:31.004Z,101479.63
2022-08-03T03:50:04.198Z,101473.31
2022-08-03T03:50:57.188Z,101474.13
2022-08-03T03:51:28.597Z,101478.06
2022-08-03T03:51:59.988Z,101475.72
2022-08-03T03:52:34.443Z,101473.75
2022-08-03T03:53:10.246Z,101470.97
2022-08-03T03:53:53.598Z,101471.75
2022-08-03T03:54:25.551Z,101473.75
2022-08-03T03:56:11.008Z,101480.06
2022-08-03T03:57:00.910Z,101476.50
2022-08-03T03:57:33.889Z,101474.94
2022-08-03T03:58:05.774Z,101480.47
2022-08-03T03:58:37.107Z,101474.16
2022-08-03T03:59:08.505Z,101477.72
2022-08-03T03:59:41.524Z,101483.22
2022-08-03T04:00:14.619Z,101479.69
2022-08-03T04:00:46.210Z,101478.13
2022-08-03T04:01:18.050Z,101480.88
2022-08-03T04:02:39.227Z,101481.31
2022-08-03T04:03:12.068Z,101478.53
2022-08-03T04:03:43.726Z,101475.78
2022-08-03T04:04:33.388Z,101478.53
2022-08-03T04:05:23.988Z,101477.41
2022-08-03T04:06:14.363Z,101476.63
2022-08-03T04:07:04.551Z,101481.34
2022-08-03T04:08:14.133Z,101475.03
2022-08-03T04:09:03.945Z,101479.03
2022-08-03T04:10:58.910Z,101477.88
2022-08-03T04:11:37.591Z,101470.44
2022-08-03T04:12:09.157Z,101479.91
2022-08-03T04:12:50.520Z,101473.59
2022-08-03T04:13:22.924Z,101480.69
2022-08-03T04:13:57.081Z,101480.28
2022-08-03T04:14:35.880Z,101483.81
2022-08-03T04:15:08.872Z,101479.88
2022-08-03T04:15:42.024Z,101478.31
2022-08-03T04:16:17.904Z,101485.03
2022-08-03T04:17:09.511Z,101477.53
2022-08-03T04:17:42.787Z,101480.69
2022-08-03T04:18:16.033Z,101485.03
2022-08-03T04:18:52.393Z,101477.94
2022-08-03T04:19:29.367Z,101474.38
2022-08-03T04:20:03.558Z,101481.47
2022-08-03T04:21:30.020Z,101491.34
2022-08-03T04:22:09.614Z,101477.53
2022-08-03T04:22:42.029Z,101487.00
2022-08-03T04:23:15.595Z,101485.44
2022-08-03T04:23:50.999Z,101485.81
2022-08-03T04:24:26.577Z,101483.03
2022-08-03T04:25:27.720Z,101483.81
2022-08-03T04:26:01.399Z,101484.63
2022-08-03T04:26:36.164Z,101481.47
2022-08-03T04:27:13.322Z,101485.03
2022-08-03T04:28:29.790Z,101487.00
2022-08-03T04:28:43.323Z,101480.69
2022-08-03T04:29:15.812Z,101484.25
2022-08-03T04:29:51.575Z,101485.44
2022-08-03T04:30:23.243Z,101480.69
2022-08-03T04:30:56.978Z,101484.66
2022-08-03T04:31:29.990Z,101487.00
2022-08-03T04:32:03.145Z,101480.69
2022-08-03T04:32:36.982Z,101483.47
2022-08-03T04:33:08.388Z,101482.63
2022-08-03T04:33:42.608Z,101482.25
2022-08-03T04:34:14.011Z,101479.50
2022-08-03T04:34:45.820Z,101489.34
2022-08-03T04:35:18.664Z,101487.38
2022-08-03T04:36:13.096Z,101484.63
2022-08-03T04:36:49.841Z,101485.41
2022-08-03T04:37:43.275Z,101486.59
2022-08-03T04:38:18.412Z,101490.19
2022-08-03T04:39:13.391Z,101482.69
2022-08-03T04:40:05.937Z,101488.22
2022-08-03T04:40:41.110Z,101485.44
2022-08-03T04:41:13.198Z,101484.66
2022-08-03T04:42:07.783Z,101486.63
2022-08-03T04:42:39.501Z,101476.38
2022-08-03T04:43:14.942Z,101483.47
2022-08-03T04:43:49.603Z,101486.22
2022-08-03T04:44:28.287Z,101481.47
2022-08-03T04:45:02.000Z,101487.78
2022-08-03T04:45:34.167Z,101483.81
2022-08-03T04:46:08.146Z,101483.03
2022-08-03T04:46:39.973Z,101483.81
2022-08-03T04:47:18.226Z,101481.84
2022-08-03T04:47:50.532Z,101485.41
2022-08-03T04:48:22.382Z,101494.47
2022-08-03T04:48:54.770Z,101490.91
2022-08-03T04:49:27.162Z,101482.63
2022-08-03T04:50:00.889Z,101487.75
2022-08-03T04:50:32.679Z,101494.84
2022-08-03T04:51:04.470Z,101492.84
2022-08-03T04:51:38.963Z,101493.28
2022-08-03T04:52:11.013Z,101488.53
2022-08-03T04:52:42.953Z,101490.09
2022-08-03T04:53:14.375Z,101494.84
2022-08-03T04:53:45.877Z,101490.50
2022-08-03T04:55:29.798Z,101493.28
2022-08-03T04:56:05.698Z,101493.28
2022-08-03T04:56:40.080Z,101496.81
2022-08-03T04:57:30.173Z,101490.13
2022-08-03T04:58:02.764Z,101489.34
2022-08-03T04:58:34.164Z,101492.13
2022-08-03T04:59:05.579Z,101492.91
2022-08-03T04:59:39.227Z,101490.91
2022-08-03T05:00:50.107Z,101500.34
2022-08-03T05:01:22.488Z,101504.31
2022-08-03T05:02:12.585Z,101501.56
2022-08-03T05:02:43.987Z,101501.97
2022-08-03T05:03:23.828Z,101502.75
2022-08-03T05:03:55.851Z,101498.00
2022-08-03T05:04:27.303Z,101498.00
2022-08-03T05:04:59.142Z,101499.56
2022-08-03T05:05:48.649Z,101503.91
2022-08-03T05:06:47.860Z,101501.56
2022-08-03T05:07:24.867Z,101504.31
2022-08-03T05:07:56.691Z,101507.50
2022-08-03T05:08:28.459Z,101510.69
2022-08-03T05:08:59.860Z,101504.38
2022-08-03T05:09:49.623Z,101503.59
2022-08-03T05:10:22.446Z,101505.16
2022-08-03T05:10:53.818Z,101514.22
2022-08-03T05:11:25.213Z,101509.91
2022-08-03T05:12:15.725Z,101508.28
2022-08-03T05:12:48.920Z,101510.63
2022-08-03T05:13:20.261Z,101508.66
2022-08-03T05:13:51.687Z,101506.66
2022-08-03T05:14:28.074Z,101505.44
2022-08-03T05:15:00.522Z,101505.44
2022-08-03T05:15:31.876Z,101509.00
2022-08-03T05:16:03.336Z,101502.69
2022-08-03T05:16:34.733Z,101507.44
2022-08-03T05:17:06.280Z,101507.44
2022-08-03T05:17:37.643Z,101506.66
2022-08-03T05:18:27.475Z,101511.41
2022-08-03T05:18:58.808Z,101508.66
2022-08-03T05:20:38.383Z,101517.00
2022-08-03T05:21:10.636Z,101512.66
2022-08-03T05:21:52.461Z,101520.94
2022-08-03T05:22:43.652Z,101523.28
2022-08-03T05:23:15.280Z,101518.56
2022-08-03T05:23:46.614Z,101523.66
2022-08-03T05:24:17.999Z,101517.34
2022-08-03T05:24:49.463Z,101522.47
2022-08-03T05:25:23.348Z,101509.84
2022-08-03T05:25:58.542Z,101520.50
2022-08-03T05:26:30.067Z,101520.50
2022-08-03T05:27:01.433Z,101513.72
2022-08-03T05:27:51.563Z,101521.28
2022-08-03T05:28:23.000Z,101511.41
2022-08-03T05:29:43.517Z,101527.22
2022-08-03T05:30:31.136Z,101520.13
2022-08-03T05:31:25.471Z,101515.38
2022-08-03T05:31:56.836Z,101517.34
2022-08-03T05:32:28.192Z,101520.13
2022-08-03T05:32:59.953Z,101520.13
2022-08-03T05:33:49.912Z,101516.94
2022-08-03T05:34:21.254Z,101522.47
2022-08-03T05:34:52.739Z,101520.50
2022-08-03T05:35:57.187Z,101518.50
2022-08-03T05:36:16.808Z,101517.72
2022-08-03T05:37:07.349Z,101523.25
2022-08-03T05:37:39.256Z,101522.47
2022-08-03T05:38:28.617Z,101519.69
2022-08-03T05:39:02.814Z,101526.00
2022-08-03T05:39:34.603Z,101517.72
2022-08-03T05:41:20.037Z,101520.03
2022-08-03T05:41:48.255Z,101526.34
2022-08-03T05:42:38.256Z,101527.13
2022-08-03T05:43:09.605Z,101516.06
2022-08-03T05:43:41.028Z,101529.91
2022-08-03T05:44:12.375Z,101522.38
2022-08-03T05:44:43.718Z,101516.06
2022-08-03T05:45:15.175Z,101525.16
2022-08-03T05:45:46.479Z,101525.94
2022-08-03T05:46:37.907Z,101528.69
2022-08-03T05:47:09.500Z,101511.34
2022-08-03T05:47:46.480Z,101517.66
2022-08-03T05:49:06.582Z,101512.47
2022-08-03T05:49:38.079Z,101516.81
2022-08-03T05:50:13.164Z,101514.06
2022-08-03T05:50:44.511Z,101519.56
2022-08-03T05:51:16.019Z,101518.38
2022-08-03T05:51:47.426Z,101516.41
2022-08-03T05:52:31.208Z,101514.41
2022-08-03T05:53:02.963Z,101520.72
2022-08-03T05:53:35.054Z,101519.53
2022-08-03T05:54:06.415Z,101523.06
2022-08-03T05:54:55.320Z,101520.31
2022-08-03T05:55:29.007Z,101523.44
2022-08-03T05:56:14.576Z,101520.25
2022-08-03T05:56:46.930Z,101520.63
2022-08-03T05:57:18.296Z,101519.00
2022-08-03T05:57:49.696Z,101521.78
2022-08-03T05:58:21.546Z,101522.91
2022-08-03T05:59:54.616Z,101520.50
2022-08-03T06:00:30.256Z,101516.91
2022-08-03T06:01:02.584Z,101523.63
2022-08-03T06:01:34.008Z,101515.69
2022-08-03T06:02:05.573Z,101518.84
2022-08-03T06:02:37.283Z,101524.34
2022-08-03T06:03:08.603Z,101523.16
2022-08-03T06:03:40.467Z,101517.22
2022-08-03T06:04:12.018Z,101516.78
2022-08-03T06:04:43.354Z,101517.56
2022-08-03T06:06:03.503Z,101507.66
2022-08-03T06:06:34.819Z,101513.97
2022-08-03T06:07:06.157Z,101512.78
2022-08-03T06:07:37.932Z,101519.44
2022-08-03T06:08:09.308Z,101511.91
2022-08-03T06:08:42.563Z,101517.81
2022-08-03T06:09:13.952Z,101522.91
2022-08-03T06:10:36.061Z,101512.66
2022-08-03T06:10:56.284Z,101517.38
2022-08-03T06:11:27.652Z,101523.28
2022-08-03T06:11:59.003Z,101519.31
2022-08-03T06:12:50.157Z,101520.88
2022-08-03T06:13:21.991Z,101525.56
2022-08-03T06:14:12.237Z,101526.38
2022-08-03T06:14:43.604Z,101523.59
2022-08-03T06:15:15.617Z,101523.59
2022-08-03T06:15:46.944Z,101517.66
2022-08-03T06:16:18.331Z,101520.00
2022-08-03T06:16:49.676Z,101519.56
2022-08-03T06:17:21.018Z,101524.69
2022-08-03T06:17:52.694Z,101520.28
2022-08-03T06:18:24.620Z,101523.81
2022-08-03T06:18:55.987Z,101519.06
2022-08-03T06:19:27.432Z,101521.41
2022-08-03T06:19:58.807Z,101522.97
2022-08-03T06:20:30.245Z,101522.59
2022-08-03T06:21:14.477Z,101522.59
2022-08-03T06:22:05.900Z,101514.66
2022-08-03T06:22:37.247Z,101528.06
2022-08-03T06:23:22.428Z,101525.31
2022-08-03T06:24:12.664Z,101523.31
2022-08-03T06:24:53.544Z,101518.56
2022-08-03T06:25:25.930Z,101527.66
2022-08-03T06:25:57.413Z,101530.00
2022-08-03T06:26:28.849Z,101525.25
2022-08-03T06:27:00.415Z,101526.81
2022-08-03T06:27:37.319Z,101533.91
2022-08-03T06:28:15.013Z,101526.75
2022-08-03T06:29:13.794Z,101524.69
2022-08-03T06:29:45.168Z,101528.22
2022-08-03T06:30:21.048Z,101527.81
2022-08-03T06:30:52.707Z,101530.94
2022-08-03T06:31:33.018Z,101519.81
2022-08-03T06:32:05.513Z,101519.81
2022-08-03T06:32:38.099Z,101527.69
2022-08-03T06:34:31.243Z,101523.72
2022-08-03T06:34:32.542Z,101522.50
2022-08-03T06:35:08.512Z,101525.63
2022-08-03T06:35:40.483Z,101523.66
2022-08-03T06:36:13.887Z,101521.66
2022-08-03T06:36:45.328Z,101523.22
2022-08-03T06:37:16.711Z,101519.22
2022-08-03T06:37:50.254Z,101521.56
2022-08-03T06:38:21.871Z,101524.72
2022-08-03T06:38:53.196Z,101524.72
2022-08-03T06:39:24.526Z,101525.44
2022-08-03T06:39:55.918Z,101524.22
2022-08-03T06:40:31.304Z,101522.22
2022-08-03T06:41:02.739Z,101523.38
2022-08-03T06:41:38.203Z,101526.50
2022-08-03T06:42:16.175Z,101521.75
2022-08-03T06:42:47.665Z,101526.09
2022-08-03T06:43:21.662Z,101524.09
2022-08-03T06:44:03.031Z,101525.66
2022-08-03T06:44:37.535Z,101529.22
2022-08-03T06:45:09.721Z,101518.91
2022-08-03T06:45:41.836Z,101519.69
2022-08-03T06:46:13.273Z,101521.69
2022-08-03T06:46:44.707Z,101522.78
2022-08-03T06:47:16.273Z,101521.22
2022-08-03T06:47:48.022Z,101509.06
2022-08-03T06:48:39.393Z,101522.72
2022-08-03T06:49:16.111Z,101522.38
2022-08-03T06:50:16.485Z,101520.38
2022-08-03T06:50:41.632Z,101524.22
2022-08-03T06:51:17.359Z,101522.25
2022-08-03T06:52:03.277Z,101512.31
2022-08-03T06:52:37.692Z,101509.91
2022-08-03T06:53:19.762Z,101522.44
2022-08-03T06:53:52.735Z,101511.34
2022-08-03T06:54:24.738Z,101510.94
2022-08-03T06:54:56.525Z,101515.63
2022-08-03T06:55:28.440Z,101522.31
2022-08-03T06:56:00.246Z,101515.97
2022-08-03T06:56:31.817Z,101516.75
2022-08-03T06:57:03.781Z,101521.44
2022-08-03T06:57:35.313Z,101519.47
2022-08-03T06:58:06.816Z,101523.78
2022-08-03T06:58:38.459Z,101522.22
2022-08-03T07:00:07.445Z,101517.91
2022-08-03T07:00:08.644Z,101514.28
2022-08-03T07:01:02.255Z,101520.59
2022-08-03T07:01:34.323Z,101515.41
2022-08-03T07:02:09.810Z,101522.16
2022-08-03T07:02:41.621Z,101512.66
2022-08-03T07:03:13.367Z,101522.16
2022-08-03T07:03:52.059Z,101526.09
2022-08-03T07:04:24.223Z,101522.94
2022-08-03T07:04:58.945Z,101535.97
2022-08-03T07:05:33.612Z,101526.50
2022-08-03T07:06:05.450Z,101522.94
2022-08-03T07:06:38.310Z,101529.69
2022-08-03T07:07:09.945Z,101537.22
2022-08-03T07:07:44.721Z,101530.13
2022-08-03T07:08:19.452Z,101531.69
2022-08-03T07:09:08.441Z,101534.44
2022-08-03T07:09:40.124Z,101534.00
2022-08-03T07:10:13.516Z,101537.09
2022-08-03T07:11:37.290Z,101540.56
2022-08-03T07:12:58.034Z,101546.88
2022-08-03T07:13:29.700Z,101537.00
2022-08-03T07:14:01.348Z,101532.97
2022-08-03T07:14:51.761Z,101540.41
2022-08-03T07:15:53.970Z,101530.97
2022-08-03T07:16:15.026Z,101538.88
2022-08-03T07:16:46.642Z,101535.66
2022-08-03T07:18:08.362Z,101534.03
2022-08-03T07:18:58.174Z,101543.03
2022-08-03T07:19:29.792Z,101532.41
2022-08-03T07:20:03.504Z,101537.16
2022-08-03T07:20:35.112Z,101532.72
2022-08-03T07:21:09.017Z,101534.72
2022-08-03T07:21:40.727Z,101535.00
2022-08-03T07:22:30.867Z,101535.34
2022-08-03T07:23:02.328Z,101543.59